createdAt,value
2022-11-28T00:00:30.873Z,3.50
2022-11-28T00:02:57.778Z,3.20
2022-11-28T00:05:24.555Z,3.77
2022-11-28T00:07:51.682Z,3.63
2022-11-28T00:10:18.748Z,4.30
2022-11-28T00:12:45.490Z,3.83
2022-11-28T00:15:12.646Z,3.83
2022-11-28T00:17:39.515Z,4.00
2022-11-28T00:20:07.148Z,3.17
2022-11-28T00:22:33.989Z,4.00
2022-11-28T00:25:00.960Z,3.70
2022-11-28T00:27:27.760Z,3.97
2022-11-28T00:29:55.196Z,3.40
2022-11-28T00:32:21.975Z,4.37
2022-11-28T00:34:48.767Z,4.07
2022-11-28T00:37:15.477Z,3.60
2022-11-28T00:39:42.199Z,4.43
2022-11-28T00:42:08.923Z,3.60
2022-11-28T00:44:35.613Z,3.87
2022-11-28T00:47:02.414Z,3.80
2022-11-28T00:49:29.249Z,3.57
2022-11-28T00:51:56.096Z,3.90
2022-11-28T00:54:22.947Z,3.80
2022-11-28T00:56:49.779Z,3.40
2022-11-28T00:59:16.615Z,3.90
2022-11-28T01:01:44.152Z,3.47
2022-11-28T01:04:13.996Z,3.50
2022-11-28T01:06:44.156Z,3.30
2022-11-28T01:09:13.722Z,3.43
2022-11-28T01:11:42.177Z,3.40
2022-11-28T01:14:10.559Z,4.10
2022-11-28T01:16:37.711Z,3.60
2022-11-28T01:19:05.348Z,3.40
2022-11-28T01:21:32.266Z,3.07
2022-11-28T01:23:59.161Z,3.47
2022-11-28T01:26:29.527Z,3.70
2022-11-28T01:28:56.637Z,3.70
2022-11-28T01:31:26.963Z,3.13
2022-11-28T01:33:54.167Z,3.40
2022-11-28T01:36:22.193Z,3.47
2022-11-28T01:38:49.269Z,2.63
2022-11-28T01:41:18.135Z,3.43
2022-11-28T01:44:05.196Z,3.27
2022-11-28T01:46:33.093Z,3.10
2022-11-28T01:49:08.709Z,2.90
2022-11-28T01:51:36.529Z,3.13
2022-11-28T01:54:03.875Z,3.00
2022-11-28T01:56:47.315Z,3.20
2022-11-28T01:59:16.207Z,3.27
2022-11-28T02:01:44.620Z,2.93
2022-11-28T02:04:13.980Z,2.50
2022-11-28T02:06:42.798Z,2.60
2022-11-28T02:09:14.585Z,2.67
2022-11-28T02:12:02.708Z,2.13
2022-11-28T02:15:06.385Z,2.30
2022-11-28T02:18:04.043Z,2.50
2022-11-28T02:20:49.618Z,2.50
2022-11-28T02:23:28.971Z,2.87
2022-11-28T02:26:20.175Z,2.87
2022-11-28T02:28:59.576Z,2.97
2022-11-28T02:31:45.131Z,2.70
2022-11-28T02:34:28.109Z,3.03
2022-11-28T02:37:08.055Z,2.67
2022-11-28T02:40:00.762Z,3.23
2022-11-28T02:42:37.429Z,2.73
2022-11-28T02:45:13.561Z,3.07
2022-11-28T02:47:46.575Z,3.07
2022-11-28T02:50:25.151Z,2.80
2022-11-28T02:53:05.116Z,2.93
2022-11-28T02:55:32.495Z,2.53
2022-11-28T02:57:59.260Z,3.47
2022-11-28T03:00:32.210Z,3.20
2022-11-28T03:03:30.002Z,2.83
2022-11-28T03:06:15.965Z,2.83
2022-11-28T03:08:54.831Z,2.27
2022-11-28T03:11:21.606Z,3.07
2022-11-28T03:13:54.283Z,3.27
2022-11-28T03:16:28.860Z,3.17
2022-11-28T03:18:59.538Z,3.10
2022-11-28T03:21:41.743Z,2.70
2022-11-28T03:24:20.110Z,2.70
2022-11-28T03:26:57.864Z,2.90
2022-11-28T03:29:48.470Z,2.77
2022-11-28T03:32:22.049Z,3.30
2022-11-28T03:34:53.825Z,2.63
2022-11-28T03:37:44.178Z,3.83
2022-11-28T03:40:15.489Z,2.40
2022-11-28T03:42:47.058Z,3.07
2022-11-28T03:45:22.353Z,3.30
2022-11-28T03:48:00.755Z,3.03
2022-11-28T03:50:49.862Z,2.47
2022-11-28T03:53:31.124Z,3.20
2022-11-28T03:56:26.110Z,2.67
2022-11-28T03:58:56.554Z,2.60
2022-11-28T04:01:36.995Z,3.17
2022-11-28T04:04:29.346Z,3.20
2022-11-28T04:07:26.237Z,2.73
2022-11-28T04:09:55.700Z,2.90
2022-11-28T04:12:40.346Z,3.03
2022-11-28T04:15:14.959Z,2.67
2022-11-28T04:17:57.745Z,2.97
2022-11-28T04:20:32.848Z,3.23
2022-11-28T04:23:08.962Z,3.40
2022-11-28T04:25:40.319Z,2.50
2022-11-28T04:28:11.841Z,3.77
2022-11-28T04:30:41.303Z,3.73
2022-11-28T04:33:11.761Z,3.57
2022-11-28T04:35:43.749Z,3.27
2022-11-28T04:38:12.826Z,3.50
2022-11-28T04:41:00.401Z,3.20
2022-11-28T04:43:34.630Z,3.10
2022-11-28T04:46:18.551Z,3.30
2022-11-28T04:48:45.531Z,3.60
2022-11-28T04:51:27.568Z,3.20
2022-11-28T04:54:23.106Z,3.47
2022-11-28T04:57:10.260Z,3.40
2022-11-28T04:59:37.575Z,3.37
2022-11-28T05:02:05.884Z,3.17
2022-11-28T05:04:36.073Z,3.40
2022-11-28T05:07:07.574Z,3.87
2022-11-28T05:09:34.783Z,3.47
2022-11-28T05:12:01.753Z,3.47
2022-11-28T05:14:28.563Z,3.20
2022-11-28T05:16:55.572Z,3.33
2022-11-28T05:19:22.683Z,3.80
2022-11-28T05:21:49.566Z,3.70
2022-11-28T05:24:16.305Z,3.20
2022-11-28T05:26:43.361Z,3.67
2022-11-28T05:29:10.235Z,3.57
2022-11-28T05:31:38.228Z,3.70
2022-11-28T05:34:05.263Z,3.50
2022-11-28T05:36:31.973Z,3.60
2022-11-28T05:38:58.829Z,3.90
2022-11-28T05:41:28.687Z,3.10
2022-11-28T05:43:57.113Z,3.43
2022-11-28T05:46:24.397Z,3.27
2022-11-28T05:48:51.221Z,3.30
2022-11-28T05:51:19.949Z,3.37
2022-11-28T05:53:46.681Z,3.20
2022-11-28T05:56:17.071Z,3.37
2022-11-28T05:58:44.405Z,3.17
2022-11-28T06:01:18.039Z,3.23
2022-11-28T06:03:45.414Z,3.20
2022-11-28T06:06:17.961Z,3.00
2022-11-28T06:08:46.353Z,3.10
2022-11-28T06:11:15.027Z,3.67
2022-11-28T06:13:43.598Z,3.37
2022-11-28T06:16:13.672Z,3.13
2022-11-28T06:18:41.031Z,3.40
2022-11-28T06:21:10.167Z,3.20
2022-11-28T06:23:37.423Z,2.87
2022-11-28T06:26:13.169Z,3.40
2022-11-28T06:28:40.548Z,3.33
2022-11-28T06:31:21.856Z,3.40
2022-11-28T06:33:49.492Z,3.33
2022-11-28T06:36:18.002Z,3.43
2022-11-28T06:38:45.127Z,3.23
2022-11-28T06:41:15.225Z,3.20
2022-11-28T06:43:42.258Z,3.67
2022-11-28T06:46:16.239Z,4.00
2022-11-28T06:48:43.800Z,3.80
2022-11-28T06:51:11.306Z,3.23
2022-11-28T06:53:38.347Z,4.37
2022-11-28T06:56:16.872Z,3.73
2022-11-28T06:58:44.507Z,4.13
2022-11-28T07:01:18.151Z,4.37
2022-11-28T07:03:45.867Z,4.90
2022-11-28T07:06:14.160Z,4.40
2022-11-28T07:08:41.871Z,4.67
2022-11-28T07:11:13.314Z,4.50
2022-11-28T07:13:41.341Z,4.70
2022-11-28T07:16:13.122Z,4.60
2022-11-28T07:18:39.928Z,4.50
2022-11-28T07:21:06.782Z,4.70
2022-11-28T07:23:33.542Z,4.70
2022-11-28T07:26:02.154Z,4.47
2022-11-28T07:28:30.076Z,4.53
2022-11-28T07:31:21.213Z,4.70
2022-11-28T07:33:49.975Z,4.73
2022-11-28T07:36:18.524Z,5.20
2022-11-28T07:38:49.794Z,4.87
2022-11-28T07:41:17.464Z,5.07
2022-11-28T07:43:46.505Z,5.73
2022-11-28T07:46:15.992Z,5.50
2022-11-28T07:48:43.745Z,5.67
2022-11-28T07:51:13.226Z,5.63
2022-11-28T07:53:40.843Z,6.10
2022-11-28T07:56:15.115Z,6.83
2022-11-28T07:58:44.301Z,6.67
2022-11-28T08:01:13.846Z,7.37
2022-11-28T08:03:40.965Z,6.77
2022-11-28T08:06:08.482Z,7.60
2022-11-28T08:08:35.918Z,7.07
2022-11-28T08:11:05.155Z,7.60
2022-11-28T08:13:32.744Z,7.60
2022-11-28T08:16:07.579Z,7.03
2022-11-28T08:18:35.670Z,7.23
2022-11-28T08:21:11.525Z,8.27
2022-11-28T08:23:39.516Z,8.40
2022-11-28T08:26:08.676Z,8.20
2022-11-28T08:28:35.671Z,8.33
2022-11-28T08:31:23.827Z,8.17
2022-11-28T08:33:52.323Z,8.20
2022-11-28T08:36:20.078Z,9.27
2022-11-28T08:39:03.311Z,8.60
2022-11-28T08:41:35.134Z,8.27
2022-11-28T08:44:01.937Z,9.57
2022-11-28T08:46:28.840Z,9.73
2022-11-28T08:48:55.757Z,10.07
2022-11-28T08:51:26.325Z,10.83
2022-11-28T08:53:59.165Z,10.20
2022-11-28T08:56:26.306Z,10.40
2022-11-28T08:58:53.102Z,11.93
2022-11-28T09:01:26.788Z,12.23
2022-11-28T09:03:55.185Z,12.37
2022-11-28T09:06:23.284Z,11.93
2022-11-28T09:08:51.270Z,12.27
2022-11-28T09:11:20.487Z,11.33
2022-11-28T09:13:47.944Z,13.10
2022-11-28T09:16:15.417Z,12.10
2022-11-28T09:18:42.670Z,12.43
2022-11-28T09:21:12.496Z,13.03
2022-11-28T09:23:41.439Z,12.97
2022-11-28T09:26:19.340Z,13.23
2022-11-28T09:28:46.639Z,13.20
2022-11-28T09:31:15.855Z,13.10
2022-11-28T09:33:43.634Z,11.50
2022-11-28T09:36:16.302Z,12.73
2022-11-28T09:38:43.117Z,12.70
2022-11-28T09:41:27.224Z,12.93
2022-11-28T09:43:57.832Z,12.93
2022-11-28T09:46:35.068Z,12.40
2022-11-28T09:49:10.396Z,14.20
2022-11-28T09:51:56.823Z,12.30
2022-11-28T09:54:28.832Z,12.20
2022-11-28T09:56:57.150Z,11.63
2022-11-28T09:59:26.887Z,11.63
2022-11-28T10:02:04.459Z,12.70
2022-11-28T10:04:54.307Z,11.10
2022-11-28T10:07:39.812Z,10.70
2022-11-28T10:10:37.300Z,10.83
2022-11-28T10:13:22.090Z,11.53
2022-11-28T10:15:58.077Z,11.37
2022-11-28T10:18:34.418Z,11.13
2022-11-28T10:21:05.126Z,11.00
2022-11-28T10:23:44.342Z,11.40
2022-11-28T10:26:41.269Z,11.40
2022-11-28T10:29:43.599Z,11.93
2022-11-28T10:32:16.063Z,11.73
2022-11-28T10:34:53.233Z,11.70
2022-11-28T10:37:25.203Z,11.80
2022-11-28T10:39:52.219Z,12.47
2022-11-28T10:42:46.198Z,12.67
2022-11-28T10:45:19.316Z,13.37
2022-11-28T10:48:37.092Z,13.23
2022-11-28T10:51:09.437Z,13.10
2022-11-28T10:53:48.208Z,13.27
2022-11-28T10:56:41.137Z,13.20
2022-11-28T10:59:10.951Z,13.93
2022-11-28T11:01:39.756Z,13.70
2022-11-28T11:04:16.879Z,14.40
2022-11-28T11:07:07.153Z,14.47
2022-11-28T11:09:30.826Z,14.07
2022-11-28T11:12:01.151Z,15.07
2022-11-28T11:14:37.341Z,15.87
2022-11-28T11:17:04.338Z,14.73
2022-11-28T11:19:38.264Z,15.43
2022-11-28T11:22:22.343Z,15.93
2022-11-28T11:25:15.682Z,17.50
2022-11-28T11:28:25.835Z,16.47
2022-11-28T11:31:02.907Z,15.80
2022-11-28T11:33:36.607Z,16.30
2022-11-28T11:36:06.126Z,16.33
2022-11-28T11:38:37.984Z,16.83
2022-11-28T11:41:20.782Z,17.80
2022-11-28T11:43:47.779Z,17.83
2022-11-28T11:46:16.330Z,16.27
2022-11-28T11:48:45.857Z,17.90
2022-11-28T11:51:27.424Z,18.17
2022-11-28T11:54:17.019Z,17.73
2022-11-28T11:56:47.221Z,18.77
2022-11-28T11:59:38.617Z,18.43
2022-11-28T12:02:23.752Z,19.67
2022-11-28T12:05:14.451Z,18.40
2022-11-28T12:08:05.317Z,19.20
2022-11-28T12:10:41.104Z,19.83
2022-11-28T12:13:20.944Z,19.20
2022-11-28T12:16:05.350Z,20.10
2022-11-28T12:18:50.154Z,20.33
2022-11-28T12:21:26.747Z,20.27
2022-11-28T12:24:08.497Z,21.07
2022-11-28T12:27:13.150Z,21.67
2022-11-28T12:30:14.581Z,22.60
2022-11-28T12:33:36.190Z,21.50
2022-11-28T12:36:24.899Z,22.17
2022-11-28T12:39:01.074Z,22.17
2022-11-28T12:41:48.818Z,23.07
2022-11-28T12:44:27.672Z,21.77
2022-11-28T12:47:11.925Z,22.10
2022-11-28T12:49:55.852Z,21.70
2022-11-28T12:52:35.348Z,21.97
2022-11-28T12:55:16.942Z,21.90
2022-11-28T12:57:55.151Z,22.70
2022-11-28T13:00:25.576Z,23.40
2022-11-28T13:03:21.806Z,23.23
2022-11-28T13:06:12.598Z,23.10
2022-11-28T13:09:10.378Z,23.23
2022-11-28T13:12:01.335Z,22.63
2022-11-28T13:15:05.860Z,23.43
2022-11-28T13:17:48.888Z,22.73
2022-11-28T13:20:25.339Z,23.43
2022-11-28T13:23:18.817Z,22.77
2022-11-28T13:26:04.501Z,23.40
2022-11-28T13:28:38.614Z,22.03
2022-11-28T13:31:27.421Z,23.20
2022-11-28T13:33:55.976Z,24.43
2022-11-28T13:39:40.229Z,23.17
2022-11-28T13:42:52.853Z,22.73
2022-11-28T13:45:36.208Z,22.13
2022-11-28T13:48:57.391Z,23.20
2022-11-28T13:51:31.436Z,23.87
2022-11-28T13:54:17.872Z,22.80
2022-11-28T13:57:09.760Z,23.83
2022-11-28T13:59:37.834Z,23.63
2022-11-28T14:02:36.190Z,23.23
2022-11-28T14:05:05.086Z,24.87
2022-11-28T14:07:33.813Z,25.10
2022-11-28T14:10:24.272Z,22.33
2022-11-28T14:12:51.379Z,24.23
2022-11-28T14:15:30.602Z,23.53
2022-11-28T14:18:47.932Z,23.20
2022-11-28T14:21:42.503Z,23.37
2022-11-28T14:24:17.829Z,22.73
2022-11-28T14:26:44.988Z,22.83
2022-11-28T14:29:24.767Z,25.40
2022-11-28T14:32:22.205Z,22.60
2022-11-28T14:34:46.893Z,23.10
2022-11-28T14:37:20.260Z,23.13
2022-11-28T14:39:51.530Z,24.00
2022-11-28T14:42:44.081Z,23.77
2022-11-28T14:45:32.998Z,23.47
2022-11-28T14:48:27.525Z,25.13
2022-11-28T14:51:00.960Z,23.73
2022-11-28T14:53:34.767Z,25.33
2022-11-28T14:56:11.962Z,22.50
2022-11-28T14:58:39.522Z,24.30
2022-11-28T15:01:15.746Z,22.37
2022-11-28T15:03:55.942Z,22.73
2022-11-28T15:06:31.006Z,23.23
2022-11-28T15:09:20.110Z,23.10
2022-11-28T15:12:08.266Z,24.17
2022-11-28T15:14:35.733Z,23.50
2022-11-28T15:17:05.991Z,23.63
2022-11-28T15:19:49.832Z,23.60
2022-11-28T15:22:39.706Z,23.13
2022-11-28T15:25:18.286Z,21.83
2022-11-28T15:27:45.171Z,24.60
2022-11-28T15:30:20.614Z,23.27
2022-11-28T15:32:48.025Z,24.73
2022-11-28T15:35:17.786Z,22.80
2022-11-28T15:37:54.355Z,24.03
2022-11-28T15:40:33.142Z,24.10
2022-11-28T15:43:01.505Z,24.57
2022-11-28T15:45:35.313Z,23.60
2022-11-28T15:48:02.319Z,23.43
2022-11-28T15:50:33.985Z,23.33
2022-11-28T15:53:18.743Z,23.73
2022-11-28T15:55:46.046Z,22.23
2022-11-28T15:58:28.651Z,22.97
2022-11-28T16:01:04.852Z,23.80
2022-11-28T16:03:36.918Z,22.70
2022-11-28T16:06:05.799Z,24.10
2022-11-28T16:08:42.872Z,22.70
2022-11-28T16:11:10.746Z,23.57
2022-11-28T16:13:39.355Z,23.50
2022-11-28T16:16:14.894Z,23.83
2022-11-28T16:18:48.397Z,23.37
2022-11-28T16:21:15.482Z,21.93
2022-11-28T16:23:43.465Z,24.83
2022-11-28T16:26:33.270Z,22.90
2022-11-28T16:29:06.153Z,22.47
2022-11-28T16:31:34.311Z,24.50
2022-11-28T16:34:02.903Z,21.63
2022-11-28T16:36:35.779Z,23.20
2022-11-28T16:39:11.958Z,22.47
2022-11-28T16:41:46.431Z,22.90
2022-11-28T16:44:15.796Z,22.77
2022-11-28T16:46:51.620Z,23.57
2022-11-28T16:49:32.274Z,25.23
2022-11-28T16:52:21.633Z,22.90
2022-11-28T16:54:49.418Z,22.47
2022-11-28T16:57:16.666Z,24.27
2022-11-28T16:59:44.934Z,22.73
2022-11-28T17:02:23.210Z,21.47
2022-11-28T17:04:51.794Z,21.63
2022-11-28T17:07:21.240Z,22.47
2022-11-28T17:09:49.277Z,22.33
2022-11-28T17:12:24.903Z,23.77
2022-11-28T17:14:51.993Z,22.20
2022-11-28T17:17:20.207Z,22.73
2022-11-28T17:19:47.493Z,22.20
2022-11-28T17:22:23.809Z,21.93
2022-11-28T17:24:51.856Z,22.57
2022-11-28T17:27:18.721Z,21.53
2022-11-28T17:29:45.949Z,20.90
2022-11-28T17:32:14.050Z,21.10
2022-11-28T17:34:42.152Z,19.03
2022-11-28T17:37:09.689Z,18.83
2022-11-28T17:39:36.597Z,20.13
2022-11-28T17:42:04.281Z,19.70
2022-11-28T17:44:36.331Z,18.90
2022-11-28T17:47:03.769Z,18.37
2022-11-28T17:49:31.190Z,20.47
2022-11-28T17:51:58.272Z,18.37
2022-11-28T17:54:26.631Z,18.83
2022-11-28T17:56:54.258Z,19.23
2022-11-28T17:59:23.024Z,20.20
2022-11-28T18:01:50.648Z,20.83
2022-11-28T18:04:17.922Z,19.10
2022-11-28T18:06:46.471Z,18.77
2022-11-28T18:09:13.871Z,20.37
2022-11-28T18:11:41.650Z,20.37
2022-11-28T18:14:09.110Z,18.67
2022-11-28T18:16:36.398Z,19.67
2022-11-28T18:19:04.099Z,21.17
2022-11-28T18:21:31.516Z,19.57
2022-11-28T18:23:58.357Z,18.57
2022-11-28T18:26:26.506Z,18.67
2022-11-28T18:28:54.257Z,16.90
2022-11-28T18:31:23.844Z,18.13
2022-11-28T18:33:51.154Z,16.87
2022-11-28T18:36:26.188Z,16.93
2022-11-28T18:38:57.943Z,16.60
2022-11-28T18:41:25.294Z,17.07
2022-11-28T18:43:56.532Z,16.47
2022-11-28T18:46:25.142Z,16.17
2022-11-28T18:48:52.927Z,16.33
2022-11-28T18:51:20.960Z,16.80
2022-11-28T18:53:49.083Z,15.63
2022-11-28T18:56:16.354Z,15.37
2022-11-28T18:58:45.618Z,15.30
2022-11-28T19:01:22.112Z,16.13
2022-11-28T19:03:51.005Z,15.80
2022-11-28T19:06:17.931Z,16.50
2022-11-28T19:08:44.807Z,15.73
2022-11-28T19:11:14.371Z,16.40
2022-11-28T19:13:42.984Z,16.33
2022-11-28T19:16:12.745Z,14.33
2022-11-28T19:18:40.463Z,16.07
2022-11-28T19:21:09.188Z,14.97
2022-11-28T19:23:35.900Z,15.47
2022-11-28T19:26:04.040Z,14.87
2022-11-28T19:28:31.086Z,14.73
2022-11-28T19:31:15.255Z,15.10
2022-11-28T19:33:45.285Z,14.13
2022-11-28T19:36:14.477Z,15.87
2022-11-28T19:38:41.906Z,16.23
2022-11-28T19:41:14.292Z,14.90
2022-11-28T19:43:42.118Z,14.30
2022-11-28T19:46:09.918Z,15.40
2022-11-28T19:48:38.010Z,15.83
2022-11-28T19:51:05.902Z,15.03
2022-11-28T19:53:34.319Z,13.97
2022-11-28T19:56:22.601Z,15.87
2022-11-28T19:58:49.453Z,14.63
2022-11-28T20:01:21.550Z,14.30
2022-11-28T20:03:49.365Z,14.07
2022-11-28T20:06:23.553Z,13.83
2022-11-28T20:08:52.796Z,14.87
2022-11-28T20:11:24.973Z,12.90
2022-11-28T20:13:59.334Z,14.77
2022-11-28T20:16:28.314Z,15.53
2022-11-28T20:18:55.274Z,16.17
2022-11-28T20:21:22.122Z,16.33
2022-11-28T20:23:54.956Z,15.10
2022-11-28T20:26:26.282Z,15.60
2022-11-28T20:28:55.018Z,15.23
2022-11-28T20:31:25.523Z,16.53
2022-11-28T20:33:53.075Z,15.50
2022-11-28T20:36:21.905Z,16.07
2022-11-28T20:38:50.247Z,16.20
2022-11-28T20:41:18.719Z,16.17
2022-11-28T20:43:45.530Z,14.33
2022-11-28T20:46:18.330Z,12.23
2022-11-28T20:48:45.642Z,12.40
2022-11-28T20:51:15.170Z,13.33
2022-11-28T20:53:42.089Z,13.87
2022-11-28T20:56:14.163Z,14.70
2022-11-28T20:58:41.535Z,13.40
2022-11-28T21:01:12.561Z,14.20
2022-11-28T21:03:39.496Z,16.40
2022-11-28T21:06:06.490Z,15.50
2022-11-28T21:08:33.830Z,16.33
2022-11-28T21:11:05.294Z,16.37
2022-11-28T21:13:32.286Z,15.27
2022-11-28T21:16:06.159Z,17.83
2022-11-28T21:18:33.501Z,13.43
2022-11-28T21:21:00.334Z,15.13
2022-11-28T21:23:27.102Z,14.03
2022-11-28T21:25:53.871Z,15.83
2022-11-28T21:28:20.739Z,16.67
2022-11-28T21:30:47.886Z,15.13
2022-11-28T21:33:14.596Z,15.50
2022-11-28T21:35:41.326Z,15.60
2022-11-28T21:38:08.397Z,15.53
2022-11-28T21:40:35.184Z,15.90
2022-11-28T21:43:02.045Z,15.13
2022-11-28T21:45:29.008Z,14.70
2022-11-28T21:47:55.886Z,15.03
2022-11-28T21:50:22.682Z,15.83
2022-11-28T21:52:49.450Z,14.23
2022-11-28T21:55:16.400Z,15.37
2022-11-28T21:57:43.236Z,15.80
2022-11-28T22:00:25.665Z,15.90
2022-11-28T22:03:02.926Z,14.83
2022-11-28T22:05:32.871Z,14.77
2022-11-28T22:07:59.824Z,15.37
2022-11-28T22:10:27.140Z,15.57
2022-11-28T22:12:54.007Z,15.40
2022-11-28T22:15:22.081Z,14.67
2022-11-28T22:17:49.122Z,15.37
2022-11-28T22:20:15.969Z,15.23
2022-11-28T22:22:42.821Z,14.83
2022-11-28T22:25:09.776Z,14.53
2022-11-28T22:27:38.076Z,15.77
2022-11-28T22:30:05.928Z,14.73
2022-11-28T22:32:32.756Z,14.87
2022-11-28T22:34:59.618Z,15.77
2022-11-28T22:37:26.319Z,14.13
2022-11-28T22:39:53.021Z,13.93
2022-11-28T22:42:19.778Z,14.73
2022-11-28T22:44:47.359Z,15.40
2022-11-28T22:47:14.157Z,14.67
2022-11-28T22:49:41.014Z,14.57
2022-11-28T22:52:07.858Z,15.17
2022-11-28T22:54:34.725Z,17.07
2022-11-28T22:57:01.580Z,14.70
2022-11-28T22:59:29.521Z,15.37
2022-11-28T23:01:56.563Z,15.43
2022-11-28T23:04:23.404Z,17.40
2022-11-28T23:06:50.110Z,16.27
2022-11-28T23:09:17.010Z,17.10
2022-11-28T23:11:43.751Z,16.63
2022-11-28T23:14:13.192Z,16.70
2022-11-28T23:16:42.492Z,15.40
2022-11-28T23:19:13.208Z,16.10
2022-11-28T23:21:42.899Z,14.40
2022-11-28T23:24:15.027Z,14.53
2022-11-28T23:26:41.880Z,13.90
2022-11-28T23:29:08.708Z,13.43
2022-11-28T23:31:38.834Z,14.47
2022-11-28T23:34:06.440Z,12.17
2022-11-28T23:36:41.836Z,12.00
2022-11-28T23:39:21.874Z,11.80
2022-11-28T23:41:49.929Z,12.80
2022-11-28T23:44:18.311Z,13.00
2022-11-28T23:46:46.025Z,11.70
2022-11-28T23:49:13.363Z,11.07
2022-11-28T23:51:41.177Z,14.00
2022-11-28T23:54:10.168Z,12.50
2022-11-28T23:56:38.307Z,12.27
2022-11-28T23:59:07.538Z,12.03
